Time;durP1;ratioP1;P1;durP2;ratioP2;P2;SDS_P1;SDS_P2;PMS_P1;PMS_P2;Temp;Humidity;BMP_temperature;BMP_pressure;BME280_temperature;BME280_humidity;BME280_pressure;Samples;Min_cycle;Max_cycle;Signal;HPM_P1;HPM_P2
2023/10/15 00:00:20;;;;;;;7.88;1.88;;;;;;;4.31;100.00;101238.22;5049302;28;20045;-66
2023/10/15 00:02:48;;;;;;;13.68;2.92;;;;;;;3.80;100.00;101179.63;5032556;28;20064;-65
2023/10/15 00:05:16;;;;;;;7.05;1.55;;;;;;;4.38;100.00;101232.13;5053472;28;20059;-65
2023/10/15 00:07:42;;;;;;;10.35;2.42;;;;;;;4.24;100.00;101242.56;5039146;28;20491;-65
2023/10/15 00:10:15;;;;;;;9.18;1.88;;;;;;;4.24;100.00;101250.31;5049163;28;20057;-65
2023/10/15 00:12:50;;;;;;;13.80;2.30;;;;;;;4.16;100.00;101234.81;5033236;28;20053;-65
2023/10/15 00:15:18;;;;;;;9.93;2.00;;;;;;;4.06;100.00;101227.06;5049543;28;20052;-65
2023/10/15 00:17:46;;;;;;;14.57;2.08;;;;;;;4.27;100.00;101246.88;5049463;28;20186;-65
2023/10/15 00:20:17;;;;;;;7.68;2.00;;;;;;;4.25;100.00;101243.41;5044004;28;20136;-65
2023/10/15 00:22:44;;;;;;;12.20;2.28;;;;;;;4.27;100.00;101237.38;5037733;28;20056;-65
2023/10/15 00:25:13;;;;;;;9.05;2.00;;;;;;;4.27;100.00;101241.69;5049599;28;20056;-65
2023/10/15 00:27:45;;;;;;;5.70;1.65;;;;;;;4.22;100.00;101256.41;5049515;28;20668;-66
2023/10/15 00:30:18;;;;;;;12.00;2.72;;;;;;;4.21;100.00;101252.06;5045245;28;20053;-66
2023/10/15 00:32:49;;;;;;;8.93;2.00;;;;;;;4.08;100.00;101227.94;5032369;28;20509;-65
2023/10/15 00:35:24;;;;;;;6.65;1.67;;;;;;;4.14;100.00;101240.84;5045754;28;20111;-66
2023/10/15 00:37:56;;;;;;;7.43;1.70;;;;;;;4.17;100.00;101249.47;5043111;28;20064;-65
2023/10/15 00:40:27;;;;;;;7.53;1.90;;;;;;;3.97;100.00;101246.94;5049241;28;20052;-66
2023/10/15 00:42:57;;;;;;;9.13;2.28;;;;;;;3.88;100.00;101246.09;5035423;28;20300;-65
2023/10/15 00:45:24;;;;;;;9.20;2.15;;;;;;;3.91;100.00;101243.50;5048771;28;20060;-65
2023/10/15 00:48:07;;;;;;;11.70;3.28;;;;;;;3.89;100.00;101234.88;5047934;28;20056;-65
2023/10/15 00:50:38;;;;;;;9.73;2.17;;;;;;;4.02;100.00;101239.19;5048722;28;20056;-66
2023/10/15 00:53:21;;;;;;;10.70;2.10;;;;;;;4.02;100.00;101246.06;5044053;28;20068;-66
2023/10/15 00:56:03;;;;;;;7.22;1.90;;;;;;;4.09;100.00;101246.06;5051497;28;20057;-66
2023/10/15 00:58:34;;;;;;;9.68;1.85;;;;;;;4.03;100.00;101260.75;5049081;28;20057;-66
2023/10/15 01:04:09;;;;;;;13.98;1.98;;;;;;;4.01;100.00;101262.50;5002539;28;20049;-66
2023/10/15 01:06:44;;;;;;;6.22;1.40;;;;;;;3.86;100.00;101240.94;5047928;28;20058;-66
2023/10/15 01:09:20;;;;;;;7.18;1.60;;;;;;;3.86;100.00;101253.00;5031910;28;20537;-66
2023/10/15 01:11:51;;;;;;;8.98;1.75;;;;;;;4.05;100.00;101270.25;5042986;28;20053;-66
2023/10/15 01:17:05;;;;;;;7.03;3.08;;;;;;;4.05;100.00;101261.59;5053299;28;20049;-66
2023/10/15 01:19:34;;;;;;;7.43;1.65;;;;;;;4.05;100.00;101272.84;5052822;28;20063;-63
2023/10/15 01:22:16;;;;;;;5.50;1.73;;;;;;;3.89;100.00;101250.41;5047167;28;20645;-65
2023/10/15 01:24:49;;;;;;;10.68;1.80;;;;;;;3.95;100.00;101286.69;5052775;28;20548;-64
2023/10/15 01:27:22;;;;;;;8.25;1.80;;;;;;;3.98;100.00;101295.31;5045245;28;20509;-64
2023/10/15 01:29:49;;;;;;;4.22;1.67;;;;;;;4.09;100.00;101317.75;5052893;28;20631;-65
2023/10/15 01:32:19;;;;;;;7.95;1.70;;;;;;;4.13;100.00;101272.84;5040245;28;20574;-64
2023/10/15 01:34:48;;;;;;;7.97;1.85;;;;;;;4.17;100.00;101275.41;5050124;28;20443;-65
2023/10/15 01:39:51;;;;;;;8.43;3.58;;;;;;;4.16;100.00;101289.25;5036308;28;20060;-64
2023/10/15 01:44:57;;;;;;;5.97;1.65;;;;;;;4.20;100.00;101303.06;5032948;28;20089;-64
2023/10/15 01:47:28;;;;;;;4.78;1.45;;;;;;;4.18;100.00;101294.41;5049046;28;20052;-64
2023/10/15 01:49:57;;;;;;;7.13;1.67;;;;;;;4.18;100.00;101291.84;5050630;28;20063;-65
2023/10/15 01:52:29;;;;;;;6.65;1.40;;;;;;;4.13;100.00;101301.34;5044907;28;20723;-65
2023/10/15 01:55:02;;;;;;;5.32;1.50;;;;;;;4.06;100.00;101303.06;5037959;28;20056;-65
2023/10/15 01:57:29;;;;;;;4.13;1.40;;;;;;;3.89;100.00;101312.59;5051858;28;20049;-65
2023/10/15 02:00:05;;;;;;;7.13;1.73;;;;;;;3.95;100.00;101304.84;5050405;28;20451;-64
2023/10/15 02:02:32;;;;;;;5.90;1.63;;;;;;;3.88;100.00;101309.16;5031916;28;20056;-65
2023/10/15 02:05:00;;;;;;;5.43;2.28;;;;;;;3.86;100.00;101316.06;5051854;28;20414;-65
2023/10/15 02:07:30;;;;;;;8.98;2.22;;;;;;;3.83;100.00;101318.66;5056931;28;20132;-65
2023/10/15 02:09:57;;;;;;;6.75;1.50;;;;;;;3.92;100.00;101325.56;5040301;28;20056;-65
2023/10/15 02:12:23;;;;;;;6.47;1.90;;;;;;;3.84;100.00;101322.94;5038621;28;20049;-65
2023/10/15 02:14:51;;;;;;;6.65;1.85;;;;;;;3.84;100.00;101307.41;5050900;28;20407;-65
2023/10/15 02:17:18;;;;;;;6.72;2.42;;;;;;;3.77;100.00;101295.31;5051946;28;20402;-64
2023/10/15 02:19:47;;;;;;;5.63;1.38;;;;;;;3.93;100.00;101317.78;5051424;28;20060;-64
2023/10/15 02:22:15;;;;;;;7.82;1.73;;;;;;;3.82;100.00;101313.47;5047043;28;20056;-64
2023/10/15 02:24:47;;;;;;;7.15;1.50;;;;;;;3.90;100.00;101319.50;5046542;28;20381;-64
2023/10/15 02:27:23;;;;;;;7.40;1.58;;;;;;;4.03;100.00;101317.75;5052103;28;20057;-64
2023/10/15 02:29:51;;;;;;;7.00;1.67;;;;;;;4.11;100.00;101326.41;5050753;28;20086;-64
2023/10/15 02:32:30;;;;;;;10.95;2.15;;;;;;;3.95;100.00;101315.19;5038020;28;20761;-65
2023/10/15 02:34:57;;;;;;;8.93;1.85;;;;;;;4.23;100.00;101317.72;5045491;28;20103;-64
2023/10/15 02:37:28;;;;;;;7.20;1.55;;;;;;;4.21;100.00;101312.53;5051862;28;20780;-64
2023/10/15 02:39:59;;;;;;;6.95;1.55;;;;;;;4.21;100.00;101324.66;5049817;28;20139;-65
2023/10/15 02:42:35;;;;;;;6.53;1.63;;;;;;;4.17;100.00;101309.09;5038244;28;20507;-65
2023/10/15 02:45:06;;;;;;;9.60;2.30;;;;;;;4.08;100.00;101316.03;5052349;28;20526;-65
2023/10/15 02:47:42;;;;;;;5.65;1.50;;;;;;;4.19;100.00;101320.31;5051604;28;20049;-65
2023/10/15 02:50:17;;;;;;;7.13;1.60;;;;;;;4.12;100.00;101328.09;5051194;28;20053;-65
2023/10/15 02:52:44;;;;;;;6.38;1.92;;;;;;;4.12;100.00;101334.16;5044026;28;20053;-65
2023/10/15 02:55:16;;;;;;;12.70;2.03;;;;;;;4.12;100.00;101328.97;5049410;28;20079;-65
2023/10/15 02:57:44;;;;;;;7.53;1.65;;;;;;;4.18;100.00;101333.31;5064738;28;20087;-64
2023/10/15 03:00:14;;;;;;;11.95;1.70;;;;;;;4.13;100.00;101342.81;5050401;28;20103;-65
2023/10/15 03:02:44;;;;;;;6.00;1.55;;;;;;;4.18;100.00;101348.84;5034187;28;20045;-64
2023/10/15 03:05:15;;;;;;;10.98;1.90;;;;;;;4.00;100.00;101336.75;5045961;28;20049;-64
2023/10/15 03:07:43;;;;;;;7.18;1.80;;;;;;;4.01;100.00;101348.84;5049535;28;20516;-64
2023/10/15 03:10:21;;;;;;;7.22;1.83;;;;;;;4.03;100.00;101343.69;5038507;28;20084;-65
2023/10/15 03:12:48;;;;;;;11.65;1.77;;;;;;;4.11;100.00;101342.81;5037974;28;20045;-65
2023/10/15 03:15:16;;;;;;;11.13;2.05;;;;;;;4.10;100.00;101346.25;5050666;28;20068;-65
2023/10/15 03:17:44;;;;;;;11.27;1.80;;;;;;;4.21;100.00;101354.00;5048719;28;20049;-65
2023/10/15 03:22:46;;;;;;;10.63;1.60;;;;;;;4.38;100.00;101334.09;5041371;28;20072;-65
2023/10/15 03:25:13;;;;;;;7.68;1.70;;;;;;;4.42;100.00;101337.56;5035491;28;20497;-65
2023/10/15 03:27:41;;;;;;;11.90;3.75;;;;;;;4.39;100.00;101314.22;5050640;28;20051;-65
2023/10/15 03:30:10;;;;;;;9.30;2.05;;;;;;;4.41;100.00;101338.44;5049689;28;20136;-66
2023/10/15 03:32:46;;;;;;;9.15;1.60;;;;;;;4.39;100.00;101332.38;5034392;28;20049;-65
2023/10/15 03:35:27;;;;;;;4.20;1.30;;;;;;;4.39;100.00;101342.75;5046739;28;20051;-65
2023/10/15 03:38:00;;;;;;;5.75;1.40;;;;;;;4.35;100.00;101339.28;5050100;28;20049;-65
2023/10/15 03:40:41;;;;;;;;;;;;;;;4.35;100.00;101341.03;5050540;28;20052;-65
2023/10/15 03:43:15;;;;;;;9.90;1.83;;;;;;;4.16;100.00;101346.25;5037166;28;19928;-65
2023/10/15 03:45:51;;;;;;;6.03;1.58;;;;;;;4.12;100.00;101349.69;5049276;28;20124;-65
2023/10/15 03:48:27;;;;;;;10.88;2.65;;;;;;;4.07;100.00;101348.88;5039449;28;20448;-65
2023/10/15 03:50:55;;;;;;;5.10;1.63;;;;;;;3.99;100.00;101354.03;5048438;28;20083;-65
2023/10/15 03:53:34;;;;;;;8.32;1.88;;;;;;;3.98;100.00;101329.00;5045140;28;20139;-65
2023/10/15 03:56:04;;;;;;;4.75;1.73;;;;;;;4.08;100.00;101341.94;5049522;28;20139;-65
2023/10/15 03:58:33;;;;;;;9.48;1.63;;;;;;;4.02;100.00;101331.56;5050079;28;20053;-65
2023/10/15 04:03:47;;;;;;;4.47;1.50;;;;;;;3.99;100.00;101335.91;5035146;28;20091;-65
2023/10/15 04:06:15;;;;;;;7.25;1.70;;;;;;;4.12;100.00;101347.09;5050791;28;20056;-65
2023/10/15 04:11:30;;;;;;;6.03;1.45;;;;;;;3.99;100.00;101325.53;5044550;28;20060;-65
2023/10/15 04:13:58;;;;;;;7.35;1.60;;;;;;;4.27;100.00;101351.44;5043979;28;20068;-65
2023/10/15 04:16:25;;;;;;;8.40;1.85;;;;;;;4.22;100.00;101347.13;5050122;28;20049;-65
2023/10/15 04:18:52;;;;;;;7.28;2.40;;;;;;;4.11;100.00;101324.66;5049860;28;20099;-65
2023/10/15 04:21:20;;;;;;;6.72;1.50;;;;;;;4.09;100.00;101347.13;5045222;28;20057;-65
2023/10/15 04:23:52;;;;;;;4.60;1.38;;;;;;;4.08;100.00;101352.31;5047150;28;20051;-65
2023/10/15 04:26:22;;;;;;;7.90;1.40;;;;;;;4.17;100.00;101355.75;5049442;28;20057;-65
2023/10/15 04:28:53;;;;;;;8.93;1.73;;;;;;;4.17;100.00;101352.31;5049134;28;20646;-65
2023/10/15 04:31:22;;;;;;;6.72;1.88;;;;;;;4.17;100.00;101349.72;5033255;28;20080;-65
2023/10/15 04:33:52;;;;;;;2.97;1.20;;;;;;;4.23;100.00;101347.09;5031390;28;20102;-65
2023/10/15 04:36:19;;;;;;;4.72;1.38;;;;;;;4.28;100.00;101349.69;5047187;28;20065;-64
2023/10/15 04:38:47;;;;;;;8.48;1.25;;;;;;;4.30;100.00;101346.25;5050043;28;20143;-64
2023/10/15 04:41:23;;;;;;;4.50;2.22;;;;;;;4.33;100.00;101343.63;5049741;28;20045;-65
2023/10/15 04:43:50;;;;;;;5.53;1.38;;;;;;;4.39;100.00;101355.69;5043409;28;20143;-64
2023/10/15 04:46:25;;;;;;;3.78;1.30;;;;;;;4.44;100.00;101345.34;5053489;28;20041;-64
2023/10/15 04:48:53;;;;;;;8.00;1.83;;;;;;;4.52;100.00;101349.63;5053591;28;20132;-64
2023/10/15 04:51:22;;;;;;;8.43;1.73;;;;;;;4.59;100.00;101358.28;5048873;28;20045;-64
2023/10/15 04:53:48;;;;;;;6.53;1.45;;;;;;;4.54;100.00;101355.69;5053061;28;20052;-64
2023/10/15 04:56:16;;;;;;;6.38;1.50;;;;;;;4.56;100.00;101342.72;5053112;28;20483;-64
2023/10/15 04:58:43;;;;;;;7.38;1.60;;;;;;;4.57;100.00;101360.88;5052622;28;20037;-64
2023/10/15 05:01:11;;;;;;;3.50;1.35;;;;;;;4.64;100.00;101356.53;5049239;28;20099;-64
2023/10/15 05:03:38;;;;;;;7.25;1.58;;;;;;;4.71;100.00;101349.56;5036717;28;20080;-64
2023/10/15 05:06:10;;;;;;;7.43;2.53;;;;;;;4.70;100.00;101348.72;5055054;28;20780;-64
2023/10/15 05:08:40;;;;;;;8.02;1.30;;;;;;;4.79;100.00;101339.19;5051702;28;20364;-64
2023/10/15 05:11:08;;;;;;;6.82;1.50;;;;;;;4.75;100.00;101359.94;5050292;28;20513;-64
2023/10/15 05:13:35;;;;;;;4.55;1.40;;;;;;;4.77;100.00;101349.56;5044898;28;20486;-64
2023/10/15 05:16:02;;;;;;;3.97;1.48;;;;;;;4.88;100.00;101365.94;5052401;28;20409;-64
2023/10/15 05:18:29;;;;;;;4.43;1.42;;;;;;;4.93;100.00;101371.97;5052218;28;20079;-64
2023/10/15 05:20:56;;;;;;;10.52;2.00;;;;;;;4.90;100.00;101346.03;5042726;28;20136;-65
2023/10/15 05:23:23;;;;;;;5.00;1.30;;;;;;;4.87;100.00;101332.19;5049547;28;20060;-64
2023/10/15 05:25:50;;;;;;;3.92;1.23;;;;;;;4.98;100.00;101353.81;5051433;28;20140;-64
2023/10/15 05:28:17;;;;;;;5.85;1.20;;;;;;;5.04;100.00;101358.94;5052184;28;20060;-64
2023/10/15 05:30:44;;;;;;;3.90;1.30;;;;;;;5.03;100.00;101357.25;5052749;28;20083;-64
2023/10/15 05:33:12;;;;;;;4.30;2.28;;;;;;;4.97;100.00;101340.81;5032793;28;20065;-64
2023/10/15 05:35:43;;;;;;;3.22;1.13;;;;;;;5.03;100.00;101362.44;5051578;28;20079;-64
2023/10/15 05:38:10;;;;;;;2.58;1.25;;;;;;;5.00;100.00;101344.25;5052397;28;20056;-65
2023/10/15 05:40:38;;;;;;;4.00;1.30;;;;;;;5.02;100.00;101347.72;5051214;28;20459;-64
2023/10/15 05:43:05;;;;;;;3.47;1.38;;;;;;;5.06;100.00;101357.19;5039933;28;20052;-64
2023/10/15 05:45:32;;;;;;;1.92;1.13;;;;;;;5.12;100.00;101364.13;5052657;28;20057;-64
2023/10/15 05:47:59;;;;;;;2.35;1.30;;;;;;;5.05;100.00;101372.81;5052621;28;20053;-65
2023/10/15 05:50:26;;;;;;;2.38;0.90;;;;;;;4.89;100.00;101351.25;5049781;28;20053;-65
2023/10/15 05:52:53;;;;;;;6.55;1.30;;;;;;;5.18;100.00;101368.41;5046578;28;20136;-65
2023/10/15 05:55:19;;;;;;;3.97;1.17;;;;;;;5.26;100.00;101364.06;5052056;28;20095;-65
2023/10/15 05:57:47;;;;;;;2.55;1.10;;;;;;;5.19;100.00;101368.41;5051812;28;20160;-65
2023/10/15 06:00:18;;;;;;;1.40;0.90;;;;;;;5.31;100.00;101365.75;5052047;28;20045;-64
2023/10/15 06:02:46;;;;;;;3.85;1.15;;;;;;;5.12;100.00;101357.19;5053745;28;20048;-64
2023/10/15 06:05:16;;;;;;;1.88;1.00;;;;;;;5.41;100.00;101374.31;5056446;28;20084;-64
2023/10/15 06:07:44;;;;;;;2.03;1.10;;;;;;;5.34;100.00;101375.25;5052020;28;20049;-65
2023/10/15 06:10:12;;;;;;;1.65;1.00;;;;;;;5.32;100.00;101362.25;5052354;28;20132;-65
2023/10/15 06:12:39;;;;;;;2.42;1.10;;;;;;;5.47;100.00;101379.50;5055366;28;20106;-65
2023/10/15 06:15:07;;;;;;;1.38;0.93;;;;;;;5.53;100.00;101383.78;5052270;28;20056;-64
2023/10/15 06:17:34;;;;;;;1.00;0.90;;;;;;;5.57;100.00;101379.44;5051564;28;20474;-64
2023/10/15 06:20:24;;;;;;;1.98;1.00;;;;;;;5.53;100.00;101370.81;5045670;28;20041;-65
2023/10/15 06:22:55;;;;;;;2.75;1.10;;;;;;;5.48;100.00;101354.38;5043975;28;20052;-65
2023/10/15 06:25:24;;;;;;;3.45;1.10;;;;;;;5.59;100.00;101367.28;5052168;28;20060;-65
2023/10/15 06:27:51;;;;;;;1.63;1.00;;;;;;;5.45;100.00;101367.38;5051939;28;20178;-65
2023/10/15 06:30:19;;;;;;;1.95;1.00;;;;;;;5.44;100.00;101370.88;5051138;28;20087;-65
2023/10/15 06:32:52;;;;;;;2.33;1.00;;;;;;;5.38;100.00;101363.94;5049395;28;20057;-65
2023/10/15 06:35:22;;;;;;;5.80;1.20;;;;;;;5.31;100.00;101364.88;5045942;28;20048;-65
2023/10/15 06:37:57;;;;;;;7.68;1.15;;;;;;;5.39;100.00;101370.88;5050923;28;20410;-65
2023/10/15 06:40:26;;;;;;;2.47;0.98;;;;;;;5.41;100.00;101355.28;5050256;28;20486;-65
2023/10/15 06:43:00;;;;;;;1.30;1.00;;;;;;;5.33;100.00;101357.94;5049092;28;20045;-64
2023/10/15 06:45:29;;;;;;;1.98;1.00;;;;;;;5.43;100.00;101374.31;5051292;28;20044;-64
2023/10/15 06:47:56;;;;;;;2.35;1.10;;;;;;;5.49;100.00;101369.09;5050552;28;20056;-64
2023/10/15 06:50:23;;;;;;;1.58;1.00;;;;;;;5.51;100.00;101377.75;5051012;28;20051;-65
2023/10/15 06:52:52;;;;;;;2.13;1.00;;;;;;;5.41;100.00;101363.94;5046967;28;20091;-65
2023/10/15 06:55:20;;;;;;;1.50;1.00;;;;;;;5.50;100.00;101371.66;5050641;28;20654;-64
2023/10/15 06:57:48;;;;;;;1.50;0.93;;;;;;;5.59;100.00;101386.34;5050241;28;20099;-64
2023/10/15 07:00:21;;;;;;;1.55;1.00;;;;;;;5.56;100.00;101381.19;5049662;28;20045;-65
2023/10/15 07:02:49;;;;;;;2.90;1.10;;;;;;;5.56;100.00;101383.78;5046575;28;20057;-65
2023/10/15 07:05:17;;;;;;;1.65;0.90;;;;;;;5.56;100.00;101388.97;5053486;28;20438;-64
2023/10/15 07:07:45;;;;;;;4.10;1.10;;;;;;;5.48;100.00;101383.81;5049903;28;20049;-64
2023/10/15 07:10:15;;;;;;;2.78;1.02;;;;;;;5.43;100.00;101375.19;5050828;28;20418;-64
2023/10/15 07:12:47;;;;;;;1.70;1.00;;;;;;;5.56;100.00;101380.28;5047106;28;20457;-64
2023/10/15 07:15:16;;;;;;;4.33;1.00;;;;;;;5.58;100.00;101384.63;5047935;28;20111;-65
2023/10/15 07:17:44;;;;;;;2.95;1.10;;;;;;;5.51;100.00;101385.53;5049901;28;20052;-65
2023/10/15 07:20:16;;;;;;;3.70;1.17;;;;;;;5.47;100.00;101389.91;5050524;28;20152;-65
2023/10/15 07:22:49;;;;;;;2.55;1.20;;;;;;;5.44;100.00;101389.91;5046791;28;20103;-65
2023/10/15 07:25:20;;;;;;;4.95;1.63;;;;;;;5.44;100.00;101391.66;5048000;28;20048;-65
2023/10/15 07:27:48;;;;;;;2.05;1.00;;;;;;;5.50;100.00;101397.63;5049985;28;20150;-65
2023/10/15 07:30:19;;;;;;;4.25;1.30;;;;;;;5.50;100.00;101399.38;5049508;28;20450;-64
2023/10/15 07:32:47;;;;;;;2.60;1.17;;;;;;;5.47;100.00;101395.09;5045728;28;20056;-65
2023/10/15 07:35:15;;;;;;;2.25;1.30;;;;;;;5.43;100.00;101385.56;5046195;28;20047;-65
2023/10/15 07:37:49;;;;;;;1.48;0.95;;;;;;;5.48;100.00;101404.59;5048225;28;20396;-65
2023/10/15 07:40:18;;;;;;;4.20;1.10;;;;;;;5.44;100.00;101395.09;5047767;28;20045;-65
2023/10/15 07:43:02;;;;;;;4.55;1.30;;;;;;;5.57;100.00;101403.66;5045803;28;20146;-65
2023/10/15 07:45:31;;;;;;;3.47;1.10;;;;;;;5.39;100.00;101383.88;5049957;28;20479;-65
2023/10/15 07:48:00;;;;;;;2.30;1.13;;;;;;;5.58;100.00;101401.94;5049562;28;20463;-65
2023/10/15 07:50:31;;;;;;;1.77;1.00;;;;;;;5.63;100.00;101401.06;5047858;28;20059;-65
2023/10/15 07:53:00;;;;;;;2.33;1.15;;;;;;;5.67;100.00;101410.53;5047078;28;20094;-65
2023/10/15 07:55:27;;;;;;;2.35;1.20;;;;;;;5.64;100.00;101409.69;5048943;28;20418;-65
2023/10/15 07:57:54;;;;;;;3.85;1.00;;;;;;;5.70;100.00;101402.72;5048470;28;20051;-65
2023/10/15 08:00:25;;;;;;;4.05;1.40;;;;;;;5.69;100.00;101402.75;5046874;28;20471;-65
2023/10/15 08:02:57;;;;;;;3.47;1.30;;;;;;;5.92;100.00;101415.56;5044016;28;20053;-65
2023/10/15 08:05:32;;;;;;;1.88;1.00;;;;;;;5.91;100.00;101400.84;5049389;28;20045;-65
2023/10/15 08:08:02;;;;;;;3.15;1.10;;;;;;;6.02;100.00;101408.56;5048161;28;20045;-65
2023/10/15 08:10:34;;;;;;;2.17;1.00;;;;;;;5.98;100.00;101412.09;5049060;28;20076;-65
2023/10/15 08:13:03;;;;;;;1.88;1.00;;;;;;;6.04;100.00;101406.84;5044055;28;20094;-65
2023/10/15 08:15:33;;;;;;;4.97;1.60;;;;;;;6.61;100.00;101419.34;5049345;28;20049;-65
2023/10/15 08:18:01;;;;;;;3.78;1.00;;;;;;;6.87;100.00;101398.25;5048920;28;20144;-65
2023/10/15 08:20:28;;;;;;;2.03;0.90;;;;;;;7.00;100.00;101406.75;5048007;28;20052;-65
2023/10/15 08:22:55;;;;;;;2.08;1.00;;;;;;;6.91;100.00;101415.53;5046927;28;20111;-65
2023/10/15 08:25:22;;;;;;;2.63;1.10;;;;;;;6.79;100.00;101400.91;5048595;28;20056;-65
2023/10/15 08:27:49;;;;;;;2.92;1.23;;;;;;;6.91;100.00;101409.47;5048078;28;20059;-65
2023/10/15 08:30:17;;;;;;;1.55;1.00;;;;;;;7.11;100.00;101404.03;5047411;28;20049;-65
2023/10/15 08:32:46;;;;;;;3.17;1.02;;;;;;;7.45;100.00;101411.38;5045282;28;20060;-64
2023/10/15 08:35:14;;;;;;;3.38;1.08;;;;;;;7.57;100.00;101404.25;5045053;28;20076;-65
2023/10/15 08:37:42;;;;;;;1.20;0.90;;;;;;;7.99;100.00;101409.69;5047533;28;20122;-65
2023/10/15 08:40:15;;;;;;;2.70;1.10;;;;;;;7.86;100.00;101404.69;5046662;28;20049;-65
2023/10/15 08:42:59;;;;;;;2.50;1.15;;;;;;;7.81;100.00;101415.22;5044996;28;20056;-64
2023/10/15 08:45:26;;;;;;;1.85;1.05;;;;;;;7.59;100.00;101412.91;5048206;28;20049;-65
2023/10/15 08:47:53;;;;;;;2.33;1.00;;;;;;;7.68;100.00;101408.44;5049247;28;20049;-65
2023/10/15 08:50:21;;;;;;;2.20;1.00;;;;;;;7.68;100.00;101414.50;5046426;28;20388;-65
2023/10/15 08:52:52;;;;;;;1.23;1.00;;;;;;;7.63;100.00;101410.25;5044015;28;20072;-65
2023/10/15 08:55:23;;;;;;;1.75;0.93;;;;;;;7.76;100.00;101409.22;5045356;28;20055;-65
2023/10/15 08:57:56;;;;;;;2.67;1.02;;;;;;;7.91;100.00;101406.34;5047389;28;20055;-65
2023/10/15 09:00:28;;;;;;;3.00;1.00;;;;;;;7.77;100.00;101410.91;5046029;28;20048;-65
2023/10/15 09:03:00;;;;;;;1.10;0.80;;;;;;;7.91;100.00;101408.09;5044202;28;20049;-65
2023/10/15 09:05:30;;;;;;;2.20;1.00;;;;;;;7.86;100.00;101404.69;5046733;28;20076;-65
2023/10/15 09:08:04;;;;;;;2.10;1.00;;;;;;;7.93;100.00;101414.16;5048356;28;20072;-65
2023/10/15 09:10:31;;;;;;;2.90;1.20;;;;;;;7.98;100.00;101412.31;5048310;28;20132;-65
2023/10/15 09:12:59;;;;;;;4.47;1.17;;;;;;;8.18;100.00;101412.03;5045608;28;20083;-65
2023/10/15 09:15:29;;;;;;;3.13;1.00;;;;;;;8.23;100.00;101415.38;5049379;28;20053;-65
2023/10/15 09:17:57;;;;;;;2.15;1.08;;;;;;;8.12;100.00;101410.34;5045948;28;20053;-65
2023/10/15 09:20:28;;;;;;;1.90;1.00;;;;;;;8.29;100.00;101417.06;5047522;28;20072;-65
2023/10/15 09:22:59;;;;;;;1.48;0.90;;;;;;;8.28;100.00;101420.53;5044774;28;20494;-65
2023/10/15 09:25:29;;;;;;;1.95;1.00;;;;;;;8.28;100.00;101426.59;5051132;28;20057;-65
2023/10/15 09:27:58;;;;;;;1.27;0.90;;;;;;;8.27;100.00;101419.69;5051520;28;20132;-65
2023/10/15 09:30:26;;;;;;;1.35;0.90;;;;;;;8.31;100.00;101423.94;5050791;28;20048;-65
2023/10/15 09:32:54;;;;;;;2.00;1.08;;;;;;;8.33;100.00;101432.63;5049026;28;20059;-65
2023/10/15 09:35:22;;;;;;;2.13;1.00;;;;;;;8.36;100.00;101429.97;5048053;28;20052;-64
2023/10/15 09:37:49;;;;;;;1.38;0.90;;;;;;;8.36;100.00;101437.78;5050372;28;20056;-64
2023/10/15 09:40:19;;;;;;;2.38;1.00;;;;;;;8.36;100.00;101410.84;5066141;28;20107;-64
2023/10/15 09:42:53;;;;;;;1.77;1.10;;;;;;;8.50;100.00;101429.75;5047617;28;20049;-64
2023/10/15 09:45:23;;;;;;;1.48;0.85;;;;;;;8.57;100.00;101434.84;5050910;28;20044;-64
2023/10/15 09:47:57;;;;;;;2.33;0.90;;;;;;;8.61;100.00;101428.72;5051359;28;20045;-64
2023/10/15 09:50:27;;;;;;;1.67;0.90;;;;;;;8.54;100.00;101434.03;5049217;28;20041;-64
2023/10/15 09:52:56;;;;;;;1.05;0.90;;;;;;;8.65;100.00;101435.56;5048128;28;20098;-64
2023/10/15 09:55:27;;;;;;;2.58;1.02;;;;;;;8.78;100.00;101418.78;5049689;28;20045;-64
2023/10/15 09:58:10;;;;;;;0.90;0.80;;;;;;;8.80;100.00;101427.47;5051929;28;20060;-64
2023/10/15 10:00:46;;;;;;;3.28;1.02;;;;;;;8.94;100.00;101421.94;5051646;28;20111;-64
2023/10/15 10:03:31;;;;;;;2.40;0.90;;;;;;;9.03;100.00;101426.13;5049599;28;20051;-64
2023/10/15 10:06:37;;;;;;;1.70;0.90;;;;;;;9.03;100.00;101434.84;5064858;28;20488;-64
2023/10/15 10:09:36;;;;;;;2.60;0.95;;;;;;;8.98;100.00;101425.34;5051341;28;20564;-64
2023/10/15 10:12:30;;;;;;;2.33;0.90;;;;;;;9.15;100.00;101419.81;5050285;28;20075;-64
2023/10/15 10:15:00;;;;;;;;;;;;;;;9.11;100.00;101421.63;5052389;28;20147;-64
2023/10/15 10:17:29;;;;;;;2.10;1.20;;;;;;;9.05;100.00;101419.16;5051465;28;19938;-65
2023/10/15 10:19:56;;;;;;;1.45;0.90;;;;;;;9.17;100.00;101420.63;5050983;28;20551;-65
2023/10/15 10:22:27;;;;;;;5.05;1.10;;;;;;;9.03;100.00;101418.28;5046474;28;20049;-65
2023/10/15 10:24:59;;;;;;;4.53;1.10;;;;;;;9.01;100.00;101417.47;5051262;28;20057;-65
2023/10/15 10:27:27;;;;;;;2.95;1.33;;;;;;;9.13;100.00;101418.06;5050296;28;20052;-65
2023/10/15 10:29:54;;;;;;;1.88;1.08;;;;;;;9.09;100.00;101420.81;5047247;28;20403;-65
2023/10/15 10:32:22;;;;;;;2.25;1.10;;;;;;;9.09;100.00;101432.09;5047900;28;20175;-65
2023/10/15 10:35:22;;;;;;;3.90;1.05;;;;;;;9.05;100.00;101440.06;5050149;28;20053;-64
2023/10/15 10:38:11;;;;;;;2.72;1.20;;;;;;;9.18;100.00;101428.44;5065580;28;20478;-65
2023/10/15 10:40:48;;;;;;;1.95;1.00;;;;;;;9.20;100.00;101424.03;5048742;28;20049;-65
2023/10/15 10:43:17;;;;;;;2.45;1.10;;;;;;;9.04;100.00;101410.44;5043957;28;20091;-64
2023/10/15 10:45:55;;;;;;;2.28;0.90;;;;;;;9.32;100.00;101418.56;5049197;28;20048;-65
2023/10/15 10:48:24;;;;;;;2.40;1.10;;;;;;;9.43;100.00;101420.94;5044333;28;20048;-65
2023/10/15 10:51:13;;;;;;;2.97;0.98;;;;;;;9.57;100.00;101425.00;5032673;28;20049;-66
2023/10/15 10:53:59;;;;;;;3.03;1.05;;;;;;;9.43;100.00;101431.38;5039029;28;20055;-65
2023/10/15 10:56:38;;;;;;;3.00;1.10;;;;;;;9.62;100.00;101421.38;5035660;28;20483;-65
2023/10/15 10:59:09;;;;;;;2.00;0.90;;;;;;;9.71;100.00;101417.72;5047644;28;20140;-66
2023/10/15 11:01:37;;;;;;;3.38;1.00;;;;;;;9.93;100.00;101417.19;5044834;28;20136;-66
2023/10/15 11:04:09;;;;;;;3.50;1.13;;;;;;;10.00;100.00;101421.38;5049703;28;20419;-66
2023/10/15 11:06:37;;;;;;;5.80;1.10;;;;;;;10.03;100.00;101414.31;5046628;28;20052;-66
2023/10/15 11:09:15;;;;;;;2.67;1.00;;;;;;;10.19;100.00;101408.72;5049993;28;20056;-66
2023/10/15 11:11:48;;;;;;;2.97;1.10;;;;;;;10.16;100.00;101403.53;5047098;28;20040;-66
2023/10/15 11:14:15;;;;;;;6.03;1.20;;;;;;;10.11;100.00;101418.50;5049880;28;20067;-66
2023/10/15 11:16:43;;;;;;;3.38;1.00;;;;;;;9.94;100.00;101424.16;5046102;28;20049;-66
2023/10/15 11:19:14;;;;;;;2.42;0.90;;;;;;;9.80;100.00;101408.78;5050682;28;20048;-66
2023/10/15 11:21:41;;;;;;;2.67;1.02;;;;;;;10.07;100.00;101407.25;5047103;28;21493;-66
2023/10/15 11:24:12;;;;;;;6.03;1.20;;;;;;;9.92;100.00;101416.34;5048027;28;20487;-65
2023/10/15 11:26:44;;;;;;;3.45;1.20;;;;;;;10.11;100.00;101402.81;5049410;28;20427;-68
2023/10/15 11:29:18;;;;;;;3.53;1.20;;;;;;;10.08;100.00;101409.00;5048161;28;20052;-69
2023/10/15 11:31:48;;;;;;;3.38;1.00;;;;;;;10.06;100.00;101402.94;5042449;28;20048;-66
2023/10/15 11:34:19;;;;;;;4.72;1.13;;;;;;;10.02;100.00;101412.63;5048730;28;20053;-69
2023/10/15 11:36:50;;;;;;;4.03;1.30;;;;;;;10.10;100.00;101398.47;5050691;28;20148;-66
2023/10/15 11:39:19;;;;;;;4.57;1.52;;;;;;;10.10;100.00;101403.72;5049206;28;20062;-66
2023/10/15 11:41:52;;;;;;;5.22;1.40;;;;;;;10.05;100.00;101396.81;5045746;28;20387;-67
2023/10/15 11:44:26;;;;;;;6.13;1.35;;;;;;;9.93;100.00;101386.66;5048108;28;20048;-66
2023/10/15 11:46:54;;;;;;;6.82;1.52;;;;;;;9.93;100.00;101397.13;5047430;28;20693;-67
2023/10/15 11:49:23;;;;;;;3.28;1.05;;;;;;;10.05;100.00;101406.44;5047252;28;20060;-67
2023/10/15 11:51:55;;;;;;;3.03;0.90;;;;;;;10.13;100.00;101409.72;5044266;28;20526;-67
2023/10/15 11:54:32;;;;;;;5.47;1.10;;;;;;;10.18;100.00;101405.25;5048367;28;20106;-67
2023/10/15 11:57:05;;;;;;;19.00;2.40;;;;;;;10.21;100.00;101407.75;5049328;28;20067;-67
2023/10/15 11:59:31;;;;;;;9.15;1.20;;;;;;;10.23;100.00;101411.22;5049907;28;20057;-67